Indianapolis, Indiana
Traffic Map
Current Weather Conditions
Indianapolis, Indiana
Clear Haze
Clear
39°
Feels Like: 39°
Wind Chill: 39° Ceiling: Unl
Heat Index: 39° Visibility: 6mi
Dew Point: 36° Wind: 0mph
Humidity: 89% Direction: ° ()
Pressure: 30.25in Gusts: 0mph
Raw Report DataKIND 231054Z 00000KT 6SM BR CLR 04/02 A3025 RMK AO2 SLP247 T00390022
Traffic Incident Summary
Active as of:
Severity:
Category:
InformationThere was an issue retrieving the traffic information for this location. Please try a different location or try again shortly.
Advertisements
Track Severe Weather on mobile